Time;durP1;ratioP1;P1;durP2;ratioP2;P2;SDS_P1;SDS_P2;PMS_P1;PMS_P2;Temp;Humidity;BMP_temperature;BMP_pressure;BME280_temperature;BME280_humidity;BME280_pressure;Samples;Min_cycle;Max_cycle;Signal;HPM_P1;HPM_P2
2022/04/11 00:01:55;;;;;;;2.95;2.15;;;;;;;4.33;100.00;101980.72;5007800;28;20033;-67
2022/04/11 00:04:20;;;;;;;6.88;3.55;;;;;;;4.34;100.00;101981.63;5005349;28;20364;-69
2022/04/11 00:06:46;;;;;;;4.80;2.80;;;;;;;4.35;100.00;101973.72;5013618;28;20467;-68
2022/04/11 00:09:11;;;;;;;6.00;3.92;;;;;;;4.34;100.00;101979.00;5013624;28;20675;-67
2022/04/11 00:11:36;;;;;;;3.63;2.42;;;;;;;4.35;100.00;101967.56;5006397;28;20520;-68
2022/04/11 00:14:04;;;;;;;3.00;1.88;;;;;;;4.36;100.00;101964.09;5006714;28;20042;-67
2022/04/11 00:16:30;;;;;;;3.67;1.67;;;;;;;4.38;100.00;101962.34;5003740;28;20029;-68
2022/04/11 00:18:55;;;;;;;6.03;4.00;;;;;;;4.36;100.00;101954.47;5010069;28;20033;-68
2022/04/11 00:21:21;;;;;;;3.75;2.78;;;;;;;4.41;100.00;101949.19;5004967;28;20032;-67
2022/04/11 00:23:46;;;;;;;7.55;2.92;;;;;;;4.40;100.00;101944.78;5004800;28;20057;-67
2022/04/11 00:26:11;;;;;;;5.75;2.03;;;;;;;4.40;100.00;101953.56;5004661;28;20037;-68
2022/04/11 00:28:36;;;;;;;4.38;2.22;;;;;;;4.44;100.00;101952.69;5008380;28;20034;-68
2022/04/11 00:31:02;;;;;;;4.35;2.97;;;;;;;4.45;100.00;101943.94;5008153;28;20128;-67
2022/04/11 00:33:27;;;;;;;2.70;1.58;;;;;;;4.47;100.00;101946.56;5008592;28;20026;-68
2022/04/11 00:35:53;;;;;;;4.78;2.75;;;;;;;4.50;100.00;101946.56;5008595;28;20103;-68
2022/04/11 00:38:18;;;;;;;4.32;2.47;;;;;;;4.49;100.00;101945.66;5008134;28;20186;-68
2022/04/11 00:40:44;;;;;;;7.10;2.67;;;;;;;4.49;100.00;101940.41;5008478;28;20032;-69
2022/04/11 00:43:09;;;;;;;4.20;3.00;;;;;;;4.57;100.00;101943.91;5008630;28;20113;-68
2022/04/11 00:45:34;;;;;;;3.28;2.15;;;;;;;4.56;100.00;101946.53;5007657;28;20038;-68
2022/04/11 00:48:00;;;;;;;1.90;1.65;;;;;;;4.53;100.00;101936.91;5008169;28;20038;-68
2022/04/11 00:50:25;;;;;;;4.45;2.40;;;;;;;4.52;100.00;101944.81;5007472;28;20447;-67
2022/04/11 00:52:54;;;;;;;2.75;2.05;;;;;;;4.50;100.00;101938.66;5014862;28;20461;-68
2022/04/11 00:55:24;;;;;;;2.80;2.00;;;;;;;4.50;100.00;101941.28;5015136;28;20394;-68
2022/04/11 00:57:51;;;;;;;4.00;2.55;;;;;;;4.42;100.00;101938.69;5050638;27;20148;-68
2022/04/11 01:00:17;;;;;;;5.38;2.83;;;;;;;4.39;100.00;101932.53;5050661;27;20095;-68
2022/04/11 01:02:42;;;;;;;4.57;2.53;;;;;;;4.35;100.00;101938.66;5122337;27;20469;-69
2022/04/11 01:05:15;;;;;;;2.67;1.88;;;;;;;4.33;100.00;101932.53;5121454;27;20143;-68
2022/04/11 01:07:43;;;;;;;3.60;1.45;;;;;;;4.32;100.00;101941.28;5048023;28;20073;-68
2022/04/11 01:10:09;;;;;;;3.78;1.83;;;;;;;4.33;100.00;101938.66;5058644;27;20042;-68
2022/04/11 01:12:34;;;;;;;3.28;2.58;;;;;;;4.30;100.00;101940.44;5132296;27;20031;-69
2022/04/11 01:15:00;;;;;;;4.68;2.72;;;;;;;4.48;100.00;101936.03;5131732;27;20474;-68
2022/04/11 01:17:36;;;;;;;4.97;2.42;;;;;;;4.62;100.00;101929.00;5132504;27;20019;-68
2022/04/11 01:20:12;;;;;;;3.08;1.90;;;;;;;4.70;100.00;101924.63;5132438;27;20031;-68
2022/04/11 01:22:38;;;;;;;4.03;2.15;;;;;;;4.68;100.00;101920.22;5131765;27;20027;-68
2022/04/11 01:25:04;;;;;;;3.80;2.58;;;;;;;4.62;100.00;101922.84;5128065;27;20411;-67
2022/04/11 01:27:31;;;;;;;2.72;2.05;;;;;;;4.57;100.00;101916.72;5026951;28;20033;-68
2022/04/11 01:29:57;;;;;;;10.82;2.92;;;;;;;4.51;100.00;101922.00;5027054;28;20025;-67
2022/04/11 01:32:22;;;;;;;5.80;2.55;;;;;;;4.45;100.00;101919.38;5027635;28;20036;-68
2022/04/11 01:34:47;;;;;;;5.10;2.72;;;;;;;4.39;100.00;101919.38;5027489;28;20022;-68
2022/04/11 01:37:13;;;;;;;6.97;1.75;;;;;;;4.34;100.00;101911.50;5119859;27;20027;-68
2022/04/11 01:39:38;;;;;;;6.32;2.55;;;;;;;4.29;100.00;101917.63;5132006;27;20051;-68
2022/04/11 01:42:04;;;;;;;3.60;2.35;;;;;;;4.25;100.00;101914.13;5131743;27;20072;-68
2022/04/11 01:44:29;;;;;;;5.28;3.28;;;;;;;4.22;100.00;101908.00;5131534;27;20031;-67
2022/04/11 01:46:55;;;;;;;3.55;2.35;;;;;;;4.18;100.00;101912.38;5131542;27;20468;-67
2022/04/11 01:49:20;;;;;;;7.32;2.10;;;;;;;4.18;100.00;101915.00;5131088;27;20385;-69
2022/04/11 01:51:45;;;;;;;3.03;1.98;;;;;;;4.15;100.00;101908.84;5132043;27;20042;-67
2022/04/11 01:54:11;;;;;;;3.03;2.17;;;;;;;4.11;100.00;101907.13;5131848;27;20505;-68
2022/04/11 01:56:37;;;;;;;1.73;1.25;;;;;;;4.06;100.00;101903.59;5130578;27;20051;-68
2022/04/11 01:59:02;;;;;;;3.05;2.00;;;;;;;3.99;100.00;101905.34;5131214;27;20049;-68
2022/04/11 02:01:30;;;;;;;1.85;1.45;;;;;;;3.96;100.00;101905.34;5029606;27;20434;-68
2022/04/11 02:03:56;;;;;;;2.97;1.65;;;;;;;3.90;100.00;101896.56;5026696;28;20061;-68
2022/04/11 02:06:27;;;;;;;3.13;2.25;;;;;;;3.82;100.00;101901.81;5027115;28;20060;-67
2022/04/11 02:08:52;;;;;;;3.28;1.85;;;;;;;3.78;100.00;101907.06;5027042;28;20041;-68
2022/04/11 02:11:17;;;;;;;4.30;2.38;;;;;;;3.71;100.00;101908.81;5116210;27;20434;-68
2022/04/11 02:13:43;;;;;;;4.00;2.70;;;;;;;3.68;100.00;101902.66;5131401;27;20023;-67
2022/04/11 02:16:08;;;;;;;2.83;2.05;;;;;;;3.63;100.00;101904.41;5130561;27;20332;-68
2022/04/11 02:18:33;;;;;;;2.70;1.60;;;;;;;3.53;100.00;101908.75;5130437;27;20091;-68
2022/04/11 02:20:59;;;;;;;4.03;1.98;;;;;;;3.49;100.00;101901.75;5130985;27;20030;-69
2022/04/11 02:23:24;;;;;;;3.42;1.75;;;;;;;3.43;100.00;101907.00;5130043;27;20023;-68
2022/04/11 02:25:50;;;;;;;4.45;2.17;;;;;;;3.37;100.00;101920.09;5130540;27;20034;-68
2022/04/11 02:28:15;;;;;;;3.45;2.38;;;;;;;3.29;100.00;101911.31;5121304;27;20027;-69
2022/04/11 02:30:41;;;;;;;3.53;2.28;;;;;;;3.21;100.00;101910.41;5104824;27;20026;-69
2022/04/11 02:33:06;;;;;;;2.83;1.92;;;;;;;3.19;100.00;101909.53;5130297;27;20761;-67
2022/04/11 02:35:32;;;;;;;2.60;1.83;;;;;;;3.15;100.00;101905.13;5130733;27;20023;-69
2022/04/11 02:37:57;;;;;;;3.75;2.17;;;;;;;3.10;100.00;101905.09;5130406;27;20044;-68
2022/04/11 02:40:23;;;;;;;1.85;1.70;;;;;;;3.03;100.00;101912.94;5130802;27;20035;-68
2022/04/11 02:42:48;;;;;;;2.22;1.88;;;;;;;3.00;100.00;101911.19;5130772;27;20031;-69
2022/04/11 02:45:17;;;;;;;3.78;2.00;;;;;;;2.98;100.00;101914.66;5130729;27;20028;-70
2022/04/11 02:47:43;;;;;;;4.05;2.28;;;;;;;2.95;100.00;101920.78;5131017;27;20368;-68
2022/04/11 02:50:09;;;;;;;4.35;2.22;;;;;;;2.92;100.00;101919.88;5129190;27;20027;-68
2022/04/11 02:52:34;;;;;;;4.90;1.60;;;;;;;2.91;100.00;101918.13;5129596;27;20385;-67
2022/04/11 02:55:00;;;;;;;3.10;2.13;;;;;;;2.93;100.00;101914.63;5130446;27;20078;-67
2022/04/11 02:57:26;;;;;;;6.00;1.92;;;;;;;2.92;100.00;101912.00;5129834;27;20027;-67
2022/04/11 02:59:52;;;;;;;4.00;2.47;;;;;;;2.94;100.00;101916.41;5129291;27;20050;-67
2022/04/11 03:02:18;;;;;;;4.90;2.85;;;;;;;2.91;100.00;101915.50;5129929;27;20027;-68
2022/04/11 03:04:44;;;;;;;3.83;2.47;;;;;;;2.91;100.00;101919.03;5130167;27;20175;-67
2022/04/11 03:07:09;;;;;;;4.10;2.10;;;;;;;2.87;100.00;101905.84;5129600;27;20122;-68
2022/04/11 03:09:35;;;;;;;9.57;2.85;;;;;;;2.85;100.00;101910.22;5130177;27;20027;-67
2022/04/11 03:12:00;;;;;;;3.50;2.05;;;;;;;2.80;100.00;101919.81;5130578;27;20035;-67
2022/04/11 03:14:26;;;;;;;6.20;3.08;;;;;;;2.79;100.00;101907.53;5130200;27;20406;-67
2022/04/11 03:16:51;;;;;;;2.83;2.22;;;;;;;3.05;100.00;101904.22;5130236;27;20477;-66
2022/04/11 03:19:17;;;;;;;3.10;2.30;;;;;;;3.15;100.00;101900.75;5129630;27;20114;-66
2022/04/11 03:21:43;;;;;;;2.70;1.92;;;;;;;3.14;100.00;101899.00;5129799;27;20031;-66
2022/04/11 03:24:08;;;;;;;6.82;2.40;;;;;;;3.09;100.00;101903.34;5129478;27;20115;-68
2022/04/11 03:26:33;;;;;;;9.18;2.70;;;;;;;3.04;100.00;101906.84;5128908;27;20429;-67
2022/04/11 03:29:02;;;;;;;3.13;1.83;;;;;;;2.98;100.00;101896.28;5129095;27;20052;-67
2022/04/11 03:31:30;;;;;;;5.30;2.95;;;;;;;2.89;100.00;101902.38;5129408;27;20023;-67
2022/04/11 03:33:55;;;;;;;4.70;3.20;;;;;;;2.80;100.00;101901.47;5128852;27;20031;-68
2022/04/11 03:36:22;;;;;;;2.72;1.85;;;;;;;2.75;100.00;101900.53;5129158;27;20037;-68
2022/04/11 03:38:48;;;;;;;4.05;2.45;;;;;;;2.69;100.00;101896.16;5129561;27;20058;-67
2022/04/11 03:41:13;;;;;;;7.60;2.17;;;;;;;2.64;100.00;101897.88;5128555;27;20402;-68
2022/04/11 03:43:38;;;;;;;6.05;2.97;;;;;;;2.59;100.00;101896.97;5129240;28;20103;-67
2022/04/11 03:46:04;;;;;;;3.55;2.60;;;;;;;2.55;100.00;101903.03;5129279;27;20023;-66
2022/04/11 03:48:29;;;;;;;5.28;3.38;;;;;;;2.55;100.00;101902.19;5128320;28;20050;-67
2022/04/11 03:50:54;;;;;;;2.75;2.05;;;;;;;2.53;100.00;101899.53;5129153;28;20113;-67
2022/04/11 03:53:23;;;;;;;3.28;2.70;;;;;;;2.49;100.00;101891.66;5129054;27;20106;-68
2022/04/11 03:55:48;;;;;;;3.60;3.08;;;;;;;2.44;100.00;101899.47;5128705;28;20023;-68
2022/04/11 03:58:14;;;;;;;2.50;1.83;;;;;;;2.42;100.00;101903.84;5128508;28;20035;-68
2022/04/11 04:00:39;;;;;;;4.45;2.40;;;;;;;2.35;100.00;101895.94;5130163;27;20047;-67
2022/04/11 04:03:10;;;;;;;3.97;2.58;;;;;;;2.32;100.00;101902.00;5132686;27;20027;-67
2022/04/11 04:05:42;;;;;;;2.17;1.80;;;;;;;2.32;100.00;101898.50;5133131;27;20397;-67
2022/04/11 04:08:09;;;;;;;3.45;2.25;;;;;;;2.31;100.00;101904.63;5132873;27;20452;-67
2022/04/11 04:10:34;;;;;;;3.13;2.45;;;;;;;2.31;100.00;101904.63;5132246;27;20027;-67
2022/04/11 04:13:00;;;;;;;4.43;3.10;;;;;;;2.33;100.00;101906.38;5132831;27;20053;-68
2022/04/11 04:15:26;;;;;;;4.35;2.65;;;;;;;2.31;100.00;101915.97;5132772;27;20078;-68
2022/04/11 04:17:52;;;;;;;3.72;2.65;;;;;;;2.28;100.00;101910.72;5132186;27;20027;-67
2022/04/11 04:20:18;;;;;;;4.90;2.70;;;;;;;2.24;100.00;101906.31;5092900;27;20034;-68
2022/04/11 04:22:43;;;;;;;4.38;3.20;;;;;;;2.20;100.00;101907.16;5019434;28;20451;-68
2022/04/11 04:25:09;;;;;;;2.88;2.30;;;;;;;2.16;100.00;101901.88;5014904;28;20121;-67
2022/04/11 04:27:34;;;;;;;3.33;2.65;;;;;;;2.16;100.00;101897.50;5008137;28;20469;-67
2022/04/11 04:30:00;;;;;;;5.05;3.15;;;;;;;2.11;100.00;101895.72;5013380;28;20036;-68
2022/04/11 04:32:26;;;;;;;8.73;2.88;;;;;;;2.10;100.00;101900.06;5018265;28;20044;-67
2022/04/11 04:34:51;;;;;;;4.50;2.20;;;;;;;2.08;100.00;101896.56;5028842;28;20029;-67
2022/04/11 04:37:17;;;;;;;3.47;1.58;;;;;;;2.05;100.00;101890.44;5038732;27;20030;-67
2022/04/11 04:39:43;;;;;;;3.63;2.80;;;;;;;2.07;100.00;101886.94;5132707;27;20507;-67
2022/04/11 04:42:08;;;;;;;2.42;1.80;;;;;;;2.05;100.00;101888.66;5133342;27;20483;-67
2022/04/11 04:44:38;;;;;;;3.85;2.35;;;;;;;2.09;100.00;101887.84;5102551;27;20038;-67
2022/04/11 04:47:04;;;;;;;4.10;2.47;;;;;;;2.03;100.00;101892.16;5010972;28;20030;-67
2022/04/11 04:49:29;;;;;;;3.67;2.10;;;;;;;1.98;100.00;101893.84;5007838;28;20111;-67
2022/04/11 04:51:56;;;;;;;3.53;3.22;;;;;;;1.98;100.00;101894.75;5008475;28;20030;-69
2022/04/11 04:54:21;;;;;;;3.67;2.17;;;;;;;1.97;100.00;101892.97;5009148;28;20117;-67
2022/04/11 04:56:49;;;;;;;3.17;2.30;;;;;;;1.93;100.00;101895.56;5008980;28;20101;-67
2022/04/11 04:59:14;;;;;;;7.75;2.50;;;;;;;1.92;100.00;101899.94;5007782;28;20041;-67
2022/04/11 05:01:40;;;;;;;5.47;2.33;;;;;;;1.91;100.00;101900.78;5008908;28;20451;-68
2022/04/11 05:04:05;;;;;;;5.80;3.38;;;;;;;1.89;100.00;101912.97;5008519;28;20030;-67
2022/04/11 05:06:30;;;;;;;3.45;2.28;;;;;;;1.91;100.00;101908.63;5007931;28;20030;-67
2022/04/11 05:08:56;;;;;;;3.80;2.88;;;;;;;1.93;100.00;101906.03;5007970;28;20030;-68
2022/04/11 05:11:21;;;;;;;4.22;2.67;;;;;;;1.94;100.00;101902.56;5008209;28;20490;-68
2022/04/11 05:13:46;;;;;;;2.80;2.03;;;;;;;1.97;100.00;101907.81;5006694;28;20040;-68
2022/04/11 05:16:11;;;;;;;5.28;2.60;;;;;;;1.99;100.00;101912.19;5008021;28;20167;-67
2022/04/11 05:18:37;;;;;;;3.53;2.50;;;;;;;2.02;100.00;101909.59;5007573;28;20041;-68
2022/04/11 05:21:02;;;;;;;4.22;3.17;;;;;;;2.07;100.00;101909.66;5006912;28;20034;-67
2022/04/11 05:23:28;;;;;;;4.72;2.88;;;;;;;2.12;100.00;101910.56;5018266;28;20108;-67
2022/04/11 05:26:05;;;;;;;4.95;3.65;;;;;;;2.16;100.00;101910.59;5016157;28;20116;-68
2022/04/11 05:28:32;;;;;;;5.35;3.13;;;;;;;2.20;100.00;101925.50;5011110;28;20032;-67
2022/04/11 05:31:00;;;;;;;2.38;1.77;;;;;;;2.27;100.00;101927.28;5019114;27;20106;-67
2022/04/11 05:33:26;;;;;;;3.65;3.33;;;;;;;2.33;100.00;101926.47;5024459;28;20026;-66
2022/04/11 05:35:51;;;;;;;4.32;2.55;;;;;;;2.37;100.00;101931.75;5023587;28;20069;-69
2022/04/11 05:38:19;;;;;;;4.38;3.10;;;;;;;2.45;100.00;101924.81;5077089;27;20071;-68
2022/04/11 05:40:44;;;;;;;8.70;2.22;;;;;;;2.53;100.00;101927.50;5038423;27;20030;-68
2022/04/11 05:43:10;;;;;;;3.30;2.28;;;;;;;2.61;100.00;101929.31;5022794;28;20056;-68
2022/04/11 05:45:35;;;;;;;3.63;3.33;;;;;;;2.71;100.00;101925.88;5023560;28;20113;-67
2022/04/11 05:48:04;;;;;;;13.80;4.78;;;;;;;2.82;100.00;101924.19;5020758;28;20061;-67
2022/04/11 05:50:29;;;;;;;5.43;4.38;;;;;;;2.97;100.00;101932.16;5021485;28;20029;-67
2022/04/11 05:52:55;;;;;;;4.80;2.65;;;;;;;3.05;100.00;101924.31;5010180;28;20091;-67
2022/04/11 05:55:22;;;;;;;6.13;3.22;;;;;;;3.14;100.00;101920.00;5011877;28;20058;-67
2022/04/11 05:57:48;;;;;;;9.73;3.15;;;;;;;3.26;100.00;101927.06;5010133;28;20403;-66
2022/04/11 06:00:15;;;;;;;5.90;4.07;;;;;;;3.42;100.00;101928.00;5011695;28;20056;-67
2022/04/11 06:02:40;;;;;;;6.22;3.13;;;;;;;3.49;100.00;101914.88;5011418;28;20113;-65
2022/04/11 06:05:06;;;;;;;9.68;4.85;;;;;;;3.65;100.00;101923.69;5006309;28;20025;-65
2022/04/11 06:07:32;;;;;;;4.38;2.72;;;;;;;3.81;100.00;101920.22;5020107;28;20030;-65
2022/04/11 06:09:59;;;;;;;6.15;3.55;;;;;;;3.96;100.00;101921.13;5026149;28;20453;-65
2022/04/11 06:12:24;;;;;;;6.07;4.53;;;;;;;4.01;100.00;101914.13;5026928;28;20025;-65
2022/04/11 06:14:50;;;;;;;4.82;4.32;;;;;;;4.31;100.00;101915.88;5026603;28;20036;-65
2022/04/11 06:17:15;;;;;;;5.35;3.85;;;;;;;4.38;100.00;101905.34;5025470;28;20032;-65
2022/04/11 06:19:41;;;;;;;5.20;3.55;;;;;;;4.40;100.00;101902.72;5026752;28;20040;-63
2022/04/11 06:22:09;;;;;;;5.07;3.67;;;;;;;4.46;100.00;101902.69;5019608;28;20042;-63
2022/04/11 06:24:37;;;;;;;6.90;4.25;;;;;;;4.48;100.00;101899.22;5008199;28;20088;-64
2022/04/11 06:27:03;;;;;;;6.18;5.00;;;;;;;4.51;100.00;101887.78;5016530;28;20100;-64
2022/04/11 06:29:28;;;;;;;6.25;3.95;;;;;;;4.61;100.00;101882.53;5022476;28;20561;-65
2022/04/11 06:31:53;;;;;;;6.28;3.67;;;;;;;4.73;100.00;101882.50;5015615;28;20029;-65
2022/04/11 06:34:19;;;;;;;5.95;3.50;;;;;;;4.77;100.00;101878.13;5019710;28;20070;-65
2022/04/11 06:36:44;;;;;;;4.30;3.00;;;;;;;4.82;100.00;101880.72;5019167;28;20093;-65
2022/04/11 06:39:09;;;;;;;7.63;4.50;;;;;;;5.01;100.00;101874.53;5035779;27;20046;-65
2022/04/11 06:41:35;;;;;;;7.95;4.70;;;;;;;5.06;100.00;101876.25;5020512;28;20025;-65
2022/04/11 06:44:10;;;;;;;5.72;3.70;;;;;;;5.23;100.00;101869.16;5016116;28;20038;-65
2022/04/11 06:46:35;;;;;;;6.57;3.75;;;;;;;5.22;100.00;101867.41;5010401;28;20037;-65
2022/04/11 06:49:00;;;;;;;7.35;4.50;;;;;;;5.31;100.00;101870.00;5014371;28;20441;-65
2022/04/11 06:51:26;;;;;;;8.05;4.75;;;;;;;5.30;100.00;101876.16;5016186;28;20034;-65
2022/04/11 06:53:51;;;;;;;9.25;5.05;;;;;;;5.35;100.00;101869.09;5019955;28;20039;-65
2022/04/11 06:56:17;;;;;;;4.35;3.70;;;;;;;5.40;100.00;101866.44;5010342;28;20029;-65
2022/04/11 06:58:42;;;;;;;4.97;3.97;;;;;;;5.58;100.00;101867.22;5013147;28;20311;-65
2022/04/11 07:01:08;;;;;;;5.28;4.22;;;;;;;5.69;100.00;101856.59;5014303;28;20033;-65
2022/04/11 07:03:33;;;;;;;5.88;3.55;;;;;;;5.79;100.00;101855.66;5010973;28;20116;-65
2022/04/11 07:05:58;;;;;;;4.78;3.92;;;;;;;5.85;100.00;101855.63;5016264;28;20160;-65
2022/04/11 07:08:26;;;;;;;6.35;4.65;;;;;;;6.08;100.00;101851.94;5020324;28;20030;-64
2022/04/11 07:10:51;;;;;;;5.43;3.53;;;;;;;6.14;100.00;101843.09;5017227;28;20116;-65
2022/04/11 07:13:20;;;;;;;12.00;5.07;;;;;;;6.10;100.00;101842.25;5014955;28;20105;-64
2022/04/11 07:15:46;;;;;;;5.78;4.38;;;;;;;6.28;100.00;101851.78;5016983;28;20037;-64
2022/04/11 07:18:11;;;;;;;5.60;3.50;;;;;;;6.39;100.00;101846.38;5022040;28;20029;-64
2022/04/11 07:20:38;;;;;;;8.07;4.05;;;;;;;6.43;100.00;101842.84;5019058;28;20106;-65
2022/04/11 07:23:03;;;;;;;4.13;3.38;;;;;;;6.57;100.00;101843.56;5008944;28;20025;-65
2022/04/11 07:25:29;;;;;;;5.18;4.10;;;;;;;6.72;100.00;101844.28;5021968;28;20044;-65
2022/04/11 07:27:57;;;;;;;6.70;4.20;;;;;;;6.74;100.00;101836.34;5018843;28;20385;-65
2022/04/11 07:30:22;;;;;;;5.10;3.35;;;;;;;6.97;100.00;101839.56;5019588;28;20021;-65
2022/04/11 07:32:48;;;;;;;5.38;4.25;;;;;;;7.04;100.00;101842.16;5023042;28;20442;-65
2022/04/11 07:35:16;;;;;;;8.00;4.32;;;;;;;7.18;100.00;101836.69;5024474;28;20036;-65
2022/04/11 07:37:41;;;;;;;4.65;2.90;;;;;;;7.10;100.00;101835.91;5015152;28;20042;-65
2022/04/11 07:40:08;;;;;;;4.97;3.78;;;;;;;7.24;100.00;101833.94;5023329;28;20505;-65
2022/04/11 07:42:33;;;;;;;6.88;4.38;;;;;;;7.46;100.00;101830.13;5019590;28;20120;-65
2022/04/11 07:44:59;;;;;;;5.70;3.20;;;;;;;7.45;100.00;101828.38;5006578;28;20036;-65
2022/04/11 07:47:24;;;;;;;6.93;3.90;;;;;;;7.68;100.00;101823.63;5004169;28;20116;-65
2022/04/11 07:49:52;;;;;;;6.30;4.72;;;;;;;7.63;100.00;101823.69;5007911;28;20042;-65
2022/04/11 07:52:18;;;;;;;6.57;4.60;;;;;;;7.71;100.00;101820.91;5015648;28;20042;-65
2022/04/11 07:54:43;;;;;;;7.07;3.95;;;;;;;7.94;100.00;101818.81;5023678;28;20047;-65
2022/04/11 07:57:09;;;;;;;7.43;3.85;;;;;;;8.04;100.00;101815.09;5024609;28;20399;-65
2022/04/11 07:59:34;;;;;;;5.15;3.42;;;;;;;8.18;100.00;101806.94;5024773;28;20037;-65
2022/04/11 08:02:00;;;;;;;6.15;3.80;;;;;;;8.26;100.00;101807.69;5016353;28;20771;-65
2022/04/11 08:04:25;;;;;;;4.22;3.22;;;;;;;8.41;100.00;101799.47;5024804;28;20037;-65
2022/04/11 08:06:51;;;;;;;7.68;4.25;;;;;;;8.54;100.00;101795.69;5024858;28;20033;-65
2022/04/11 08:09:16;;;;;;;3.30;2.90;;;;;;;8.62;100.00;101805.22;5020940;28;20025;-65
2022/04/11 08:11:41;;;;;;;3.72;2.63;;;;;;;8.83;100.00;101795.97;5018211;28;20038;-65
2022/04/11 08:14:07;;;;;;;7.70;3.75;;;;;;;9.07;100.00;101799.00;5005437;28;20113;-65
2022/04/11 08:16:32;;;;;;;7.25;4.28;;;;;;;9.06;100.00;101799.91;5006053;28;20042;-65
2022/04/11 08:18:57;;;;;;;4.45;3.38;;;;;;;9.11;100.00;101792.72;5025514;28;20033;-65
2022/04/11 08:21:23;;;;;;;6.80;3.78;;;;;;;9.24;100.00;101794.22;5023347;28;20025;-65
2022/04/11 08:23:48;;;;;;;5.57;3.22;;;;;;;9.32;100.00;101794.91;5023410;28;20045;-65
2022/04/11 08:26:13;;;;;;;7.38;4.25;;;;;;;9.66;100.00;101795.00;5023132;28;20546;-65
2022/04/11 08:28:39;;;;;;;3.88;3.20;;;;;;;9.72;100.00;101794.00;5052568;28;20124;-65
2022/04/11 08:31:04;;;;;;;11.35;3.50;;;;;;;9.88;100.00;101785.59;5023660;28;20059;-65
2022/04/11 08:33:30;;;;;;;3.97;3.03;;;;;;;10.04;100.00;101781.66;5023290;28;20041;-65
2022/04/11 08:35:55;;;;;;;4.32;3.70;;;;;;;10.21;100.00;101783.94;5020567;28;20399;-65
2022/04/11 08:38:20;;;;;;;3.33;2.30;;;;;;;10.44;100.00;101770.91;5079895;27;20036;-64
2022/04/11 08:40:46;;;;;;;4.50;3.53;;;;;;;10.64;100.00;101773.88;5129052;28;20062;-64
2022/04/11 08:43:14;;;;;;;5.15;2.72;;;;;;;10.65;100.00;101781.78;5027363;27;20076;-65
2022/04/11 08:45:39;;;;;;;3.65;2.63;;;;;;;11.33;100.00;101782.41;5023604;28;20562;-65
2022/04/11 08:48:05;;;;;;;3.58;2.97;;;;;;;11.47;100.00;101784.66;5012309;28;20030;-65
2022/04/11 08:50:31;;;;;;;2.95;2.05;;;;;;;11.60;100.00;101786.88;5009711;28;20066;-65
2022/04/11 08:52:57;;;;;;;6.05;2.20;;;;;;;11.66;100.00;101784.06;5009921;28;20054;-65
2022/04/11 08:55:23;;;;;;;3.28;2.47;;;;;;;12.35;100.00;101779.03;5012664;28;20366;-65
2022/04/11 08:57:49;;;;;;;3.95;2.13;;;;;;;12.55;100.00;101780.13;5016123;28;20490;-65
2022/04/11 09:00:17;;;;;;;5.53;2.40;;;;;;;13.00;100.00;101779.31;5009822;28;20072;-65
2022/04/11 09:02:43;;;;;;;4.88;1.88;;;;;;;13.69;100.00;101779.22;5013349;28;20052;-65
2022/04/11 09:05:10;;;;;;;4.80;2.08;;;;;;;13.04;100.00;101774.75;5009589;28;20033;-64
2022/04/11 09:07:47;;;;;;;2.75;1.67;;;;;;;13.51;100.00;101776.44;5023843;28;20041;-65
2022/04/11 09:10:18;;;;;;;3.28;2.15;;;;;;;14.16;100.00;101768.38;5021429;27;20089;-65
2022/04/11 09:12:47;;;;;;;3.40;1.67;;;;;;;14.17;100.00;101773.66;5020633;28;20037;-65
2022/04/11 09:15:15;;;;;;;3.45;1.98;;;;;;;14.62;100.00;101770.84;5023347;28;20086;-65
2022/04/11 09:17:45;;;;;;;2.85;1.55;;;;;;;14.90;100.00;101772.19;5015923;28;20452;-65
2022/04/11 09:20:14;;;;;;;3.13;2.25;;;;;;;15.41;100.00;101763.59;5006895;28;20042;-65
2022/04/11 09:22:43;;;;;;;4.30;2.00;;;;;;;15.77;100.00;101763.59;5017087;28;20054;-65
2022/04/11 09:25:12;;;;;;;2.70;1.67;;;;;;;15.08;100.00;101757.97;5021863;28;20454;-65
2022/04/11 09:27:38;;;;;;;2.47;1.80;;;;;;;15.52;100.00;101758.53;5016765;28;20046;-65
2022/04/11 09:30:21;;;;;;;3.50;1.80;;;;;;;15.80;100.00;101763.44;5026929;28;20034;-65
2022/04/11 09:33:01;;;;;;;3.60;1.63;;;;;;;15.98;100.00;101747.28;5022634;28;20053;-65
2022/04/11 09:35:38;;;;;;;6.40;1.25;;;;;;;16.84;100.00;101761.56;5006565;28;20046;-65
2022/04/11 09:38:06;;;;;;;1.92;1.30;;;;;;;17.64;100.00;101760.63;5026714;27;20065;-65
2022/04/11 09:40:36;;;;;;;3.40;2.22;;;;;;;16.81;100.00;101759.03;5014195;28;20045;-65
2022/04/11 09:43:02;;;;;;;2.88;1.80;;;;;;;17.05;100.00;101759.53;5026759;28;20033;-65
2022/04/11 09:45:27;;;;;;;3.22;1.83;;;;;;;16.87;100.00;101764.06;5027645;28;20148;-65
2022/04/11 09:48:00;;;;;;;2.42;1.02;;;;;;;18.62;100.00;101762.81;5025960;28;20082;-65
2022/04/11 09:50:29;;;;;;;2.42;1.30;;;;;;;18.21;100.00;101762.59;5025442;28;20356;-65
2022/04/11 09:53:15;;;;;;;2.28;1.40;;;;;;;18.43;100.00;101758.63;5013064;28;20040;-66
2022/04/11 09:55:42;;;;;;;1.55;1.02;;;;;;;17.88;100.00;101759.22;5013581;28;20034;-65
2022/04/11 09:58:08;;;;;;;2.00;1.33;;;;;;;18.60;100.00;101753.09;5021811;28;20037;-65
2022/04/11 10:00:39;;;;;;;2.42;1.20;;;;;;;19.02;100.00;101747.75;5005842;28;20034;-65
2022/04/11 10:03:05;;;;;;;5.25;1.42;;;;;;;18.18;100.00;101748.47;5006754;28;20126;-65
2022/04/11 10:05:35;;;;;;;4.13;0.82;;;;;;;19.39;100.00;101752.53;5020984;28;20091;-65
2022/04/11 10:08:06;;;;;;;2.25;1.30;;;;;;;19.96;100.00;101755.91;5025953;28;20033;-65
2022/04/11 10:10:34;;;;;;;2.35;1.10;;;;;;;19.18;100.00;101753.84;5026739;28;20025;-65
2022/04/11 10:13:01;;;;;;;1.67;1.10;;;;;;;19.44;100.00;101761.19;5026630;28;20030;-66
2022/04/11 10:15:26;;;;;;;2.47;1.30;;;;;;;19.98;100.00;101752.13;5025705;28;20037;-65
2022/04/11 10:17:56;;;;;;;1.73;1.20;;;;;;;19.96;100.00;101759.47;5026235;28;20038;-68
2022/04/11 10:20:25;;;;;;;1.85;1.02;;;;;;;19.52;100.00;101759.69;5026228;28;20368;-65
2022/04/11 10:23:14;;;;;;;2.20;0.80;;;;;;;17.75;100.00;101757.31;5025372;28;20375;-65
2022/04/11 10:25:46;;;;;;;3.20;1.08;;;;;;;18.40;100.00;101738.19;5025686;28;20045;-66
2022/04/11 10:28:15;;;;;;;2.15;1.10;;;;;;;18.41;100.00;101736.34;5025370;28;20048;-65
2022/04/11 10:30:42;;;;;;;4.00;1.42;;;;;;;19.52;100.00;101732.75;5024553;28;20045;-65
2022/04/11 10:33:07;;;;;;;1.50;1.17;;;;;;;20.41;100.00;101739.31;5022664;28;20029;-66
2022/04/11 10:35:43;;;;;;;2.08;1.10;;;;;;;20.92;100.00;101736.53;5014994;28;20778;-64
2022/04/11 10:38:12;;;;;;;2.38;1.10;;;;;;;20.70;100.00;101744.44;5072407;27;20051;-67
2022/04/11 10:40:48;;;;;;;2.33;1.02;;;;;;;21.00;100.00;101733.31;5129733;27;20441;-64
2022/04/11 10:43:16;;;;;;;3.42;1.10;;;;;;;21.87;100.00;101739.47;5128701;27;20163;-65
2022/04/11 10:45:57;;;;;;;1.95;0.80;;;;;;;22.14;100.00;101726.53;5027022;27;20053;-64
2022/04/11 10:49:05;;;;;;;1.67;1.20;;;;;;;21.46;100.00;101731.69;5025689;28;20040;-64
2022/04/11 10:51:30;;;;;;;2.63;1.25;;;;;;;19.84;100.00;101721.69;5024410;28;20126;-64
2022/04/11 10:54:18;;;;;;;1.58;1.02;;;;;;;21.98;100.00;101705.19;5024719;28;20432;-64
2022/04/11 10:56:55;;;;;;;2.20;0.88;;;;;;;21.66;100.00;101717.56;5024593;28;20045;-64
2022/04/11 10:59:28;;;;;;;1.65;0.93;;;;;;;22.18;100.00;101703.66;5025384;28;20064;-65
2022/04/11 11:01:55;;;;;;;1.92;0.93;;;;;;;22.63;100.00;101700.97;5023360;28;20045;-65
2022/04/11 11:04:22;;;;;;;3.65;1.45;;;;;;;21.84;100.00;101691.00;5004815;28;20032;-65
2022/04/11 11:06:47;;;;;;;1.85;1.35;;;;;;;23.28;100.00;101697.50;5014481;28;20029;-65
2022/04/11 11:09:18;;;;;;;2.53;0.90;;;;;;;21.77;100.00;101679.78;5013438;28;20025;-65
2022/04/11 11:11:48;;;;;;;1.52;0.95;;;;;;;22.90;100.00;101676.22;5018575;28;20231;-64
2022/04/11 11:14:41;;;;;;;1.55;1.00;;;;;;;23.87;100.00;101679.84;5018815;28;20059;-64
2022/04/11 11:17:07;;;;;;;3.30;1.25;;;;;;;23.43;100.00;101680.00;5024588;28;20128;-65
2022/04/11 11:20:07;;;;;;;4.13;1.42;;;;;;;23.92;100.00;101678.44;5025068;28;20467;-65
2022/04/11 11:22:54;;;;;;;1.33;1.00;;;;;;;24.28;100.00;101669.06;5024919;28;20061;-64
2022/04/11 11:25:22;;;;;;;1.70;1.20;;;;;;;25.05;100.00;101654.88;5016759;28;20078;-65